createdAt,value
2022-11-02T00:04:45.199Z,1.90
2022-11-02T00:09:46.664Z,1.77
2022-11-02T00:14:48.156Z,2.00
2022-11-02T00:19:49.662Z,1.48
2022-11-02T00:24:51.499Z,1.50
2022-11-02T00:29:53.944Z,1.50
2022-11-02T00:34:55.407Z,1.90
2022-11-02T00:39:56.942Z,1.30
2022-11-02T00:44:58.478Z,2.00
2022-11-02T00:50:00.003Z,1.65
2022-11-02T00:55:01.482Z,1.25
2022-11-02T01:00:04.005Z,1.13
2022-11-02T01:05:08.162Z,1.25
2022-11-02T01:10:10.989Z,1.38
2022-11-02T01:15:12.473Z,1.45
2022-11-02T01:20:14.392Z,1.52
2022-11-02T01:25:16.420Z,1.40
2022-11-02T01:30:17.972Z,0.90
2022-11-02T01:35:19.452Z,0.90
2022-11-02T01:40:20.948Z,1.20
2022-11-02T01:45:22.611Z,1.08
2022-11-02T01:50:27.425Z,1.27
2022-11-02T01:55:32.917Z,1.20
2022-11-02T02:00:34.404Z,1.05
2022-11-02T02:05:40.815Z,1.10
2022-11-02T02:10:42.269Z,1.48
2022-11-02T02:16:00.684Z,1.33
2022-11-02T02:21:14.530Z,1.38
2022-11-02T02:26:55.326Z,1.17
2022-11-02T02:32:10.003Z,1.92
2022-11-02T02:37:19.444Z,1.40
2022-11-02T02:42:31.316Z,1.33
2022-11-02T02:47:35.516Z,1.73
2022-11-02T02:52:37.826Z,2.28
2022-11-02T02:57:39.791Z,1.73
2022-11-02T03:02:43.929Z,1.48
2022-11-02T03:07:45.482Z,2.72
2022-11-02T03:13:23.512Z,2.75
2022-11-02T03:18:43.679Z,2.00
2022-11-02T03:23:58.397Z,2.50
2022-11-02T03:28:59.825Z,1.95
2022-11-02T03:34:09.399Z,2.65
2022-11-02T03:39:13.672Z,2.55
2022-11-02T03:44:20.261Z,2.25
2022-11-02T03:49:23.804Z,2.53
2022-11-02T03:54:51.713Z,2.45
2022-11-02T03:59:53.207Z,2.47
2022-11-02T04:04:54.744Z,1.90
2022-11-02T04:09:56.185Z,1.90
2022-11-02T04:14:57.642Z,1.90
2022-11-02T04:19:59.152Z,1.65
2022-11-02T04:25:15.751Z,3.25
2022-11-02T04:30:22.324Z,2.30
2022-11-02T04:35:23.773Z,2.58
2022-11-02T04:40:25.444Z,2.22
2022-11-02T04:45:26.918Z,2.10
2022-11-02T04:50:28.890Z,2.40
2022-11-02T04:55:31.195Z,2.67
2022-11-02T05:00:32.674Z,2.60
2022-11-02T05:05:34.148Z,3.33
2022-11-02T05:10:35.777Z,2.65
2022-11-02T05:15:39.767Z,3.08
2022-11-02T05:20:41.374Z,3.53
2022-11-02T05:25:42.813Z,2.45
2022-11-02T05:30:44.323Z,2.55
2022-11-02T05:35:46.446Z,2.55
2022-11-02T05:40:55.762Z,2.40
2022-11-02T05:46:02.161Z,2.22
2022-11-02T05:51:04.349Z,2.00
2022-11-02T05:56:07.696Z,2.55
2022-11-02T06:01:10.784Z,2.75
2022-11-02T06:06:12.461Z,2.35
2022-11-02T06:11:14.358Z,1.95
2022-11-02T06:16:22.397Z,1.80
2022-11-02T06:21:24.670Z,1.98
2022-11-02T06:26:26.153Z,2.20
2022-11-02T06:31:27.618Z,2.28
2022-11-02T06:36:29.080Z,2.35
2022-11-02T06:41:30.544Z,2.05
2022-11-02T06:46:32.278Z,1.98
2022-11-02T06:51:33.725Z,1.80
2022-11-02T06:56:35.180Z,1.70
2022-11-02T07:01:36.822Z,1.50
2022-11-02T07:06:38.355Z,1.90
2022-11-02T07:11:39.825Z,1.73
2022-11-02T07:16:41.293Z,1.55
2022-11-02T07:21:45.107Z,1.85
2022-11-02T07:26:50.222Z,1.67
2022-11-02T07:31:51.751Z,1.63
2022-11-02T07:36:55.044Z,1.98
2022-11-02T07:41:56.566Z,2.08
2022-11-02T07:46:58.088Z,1.60
2022-11-02T07:51:59.585Z,1.88
2022-11-02T07:57:01.125Z,1.60
2022-11-02T08:02:03.133Z,1.60
2022-11-02T08:07:05.122Z,1.83
2022-11-02T08:12:06.642Z,1.85
2022-11-02T08:17:08.418Z,1.85
2022-11-02T08:22:10.781Z,1.83
2022-11-02T08:27:12.260Z,2.70
2022-11-02T08:32:13.731Z,2.25
2022-11-02T08:37:15.198Z,2.30
2022-11-02T08:42:17.379Z,1.90
2022-11-02T08:47:18.903Z,3.67
2022-11-02T08:52:20.376Z,2.47
2022-11-02T08:57:21.825Z,1.90
2022-11-02T09:02:23.423Z,2.15
2022-11-02T09:07:24.882Z,2.85
2022-11-02T09:12:26.347Z,1.60
2022-11-02T09:17:29.235Z,2.08
2022-11-02T09:22:30.742Z,2.67
2022-11-02T09:27:32.220Z,1.70
2022-11-02T09:32:34.413Z,1.92
2022-11-02T09:37:36.531Z,1.95
2022-11-02T09:42:46.578Z,1.48
2022-11-02T09:48:17.995Z,2.00
2022-11-02T09:53:31.671Z,1.70
2022-11-02T09:58:40.897Z,2.25
2022-11-02T10:04:33.270Z,1.60
2022-11-02T10:09:49.960Z,2.05
2022-11-02T10:15:22.917Z,1.85
2022-11-02T10:20:39.325Z,2.20
2022-11-02T10:25:41.953Z,1.60
2022-11-02T10:30:44.500Z,1.98
2022-11-02T10:36:30.591Z,2.42
2022-11-02T10:41:37.859Z,1.77
2022-11-02T10:46:57.918Z,2.10
2022-11-02T10:51:59.703Z,2.58
2022-11-02T10:57:11.222Z,1.88
2022-11-02T11:02:15.171Z,2.53
2022-11-02T11:07:22.221Z,2.33
2022-11-02T11:12:30.549Z,1.95
2022-11-02T11:23:25.374Z,2.13
2022-11-02T11:28:37.916Z,2.50
2022-11-02T11:33:49.105Z,2.33
2022-11-02T11:38:52.532Z,1.83
2022-11-02T11:43:54.543Z,1.80
2022-11-02T11:48:59.653Z,1.92
2022-11-02T11:54:14.947Z,1.52
2022-11-02T11:59:22.307Z,1.90
2022-11-02T12:04:37.471Z,3.13
2022-11-02T12:10:09.713Z,2.17
2022-11-02T12:15:38.596Z,2.42
2022-11-02T12:21:15.734Z,2.10
2022-11-02T12:26:42.062Z,3.33
2022-11-02T12:31:54.485Z,2.58
2022-11-02T12:37:40.047Z,2.58
2022-11-02T12:43:21.661Z,1.80
2022-11-02T12:48:49.561Z,1.65
2022-11-02T12:59:26.956Z,2.00
2022-11-02T13:04:39.640Z,2.28
2022-11-02T13:09:51.944Z,1.95
2022-11-02T13:14:56.739Z,2.25
2022-11-02T13:20:01.875Z,2.10
2022-11-02T13:25:15.637Z,1.55
2022-11-02T13:30:19.023Z,2.00
2022-11-02T13:35:27.793Z,1.70
2022-11-02T13:40:47.481Z,2.08
2022-11-02T13:45:57.324Z,1.60
2022-11-02T13:51:06.212Z,2.25
2022-11-02T13:56:21.290Z,3.75
2022-11-02T14:01:23.521Z,3.50
2022-11-02T14:06:25.941Z,4.10
2022-11-02T14:11:42.512Z,3.40
2022-11-02T14:16:58.641Z,3.80
2022-11-02T14:22:00.355Z,3.25
2022-11-02T14:27:13.646Z,2.83
2022-11-02T14:32:21.010Z,2.00
2022-11-02T14:37:41.112Z,2.75
2022-11-02T14:42:52.650Z,2.85
2022-11-02T14:48:04.248Z,2.42
2022-11-02T14:53:16.714Z,2.90
2022-11-02T14:58:20.371Z,2.88
2022-11-02T15:03:24.660Z,2.45
2022-11-02T15:08:31.421Z,2.58
2022-11-02T15:13:36.095Z,4.07
2022-11-02T15:18:38.908Z,3.78
2022-11-02T15:24:12.343Z,3.05
2022-11-02T15:29:26.935Z,2.73
2022-11-02T15:34:43.525Z,2.58
2022-11-02T15:39:52.847Z,2.78
2022-11-02T15:45:48.794Z,2.78
2022-11-02T15:50:53.198Z,2.42
2022-11-02T15:56:28.512Z,2.88
2022-11-02T16:01:30.143Z,3.08
2022-11-02T16:06:41.590Z,3.25
2022-11-02T16:11:43.050Z,3.90
2022-11-02T16:16:49.656Z,3.30
2022-11-02T16:21:51.169Z,3.60
2022-11-02T16:26:52.804Z,3.25
2022-11-02T16:31:54.315Z,2.72
2022-11-02T16:36:56.828Z,3.63
2022-11-02T16:42:00.486Z,3.83
2022-11-02T16:47:08.137Z,2.85
2022-11-02T16:52:20.469Z,3.55
2022-11-02T16:57:25.201Z,3.58
2022-11-02T17:02:39.610Z,3.40
2022-11-02T17:07:46.795Z,3.22
2022-11-02T17:12:49.237Z,3.35
2022-11-02T17:17:50.998Z,4.18
2022-11-02T17:22:58.717Z,3.33
2022-11-02T17:28:03.223Z,3.38
2022-11-02T17:33:29.578Z,4.63
2022-11-02T17:43:57.825Z,3.83
2022-11-02T17:48:59.316Z,2.53
2022-11-02T17:54:00.791Z,2.88
2022-11-02T17:59:02.282Z,3.10
2022-11-02T18:04:03.808Z,2.92
2022-11-02T18:09:11.216Z,2.65
2022-11-02T18:14:16.773Z,3.03
2022-11-02T18:19:19.310Z,3.50
2022-11-02T18:24:20.803Z,3.10
2022-11-02T18:29:22.305Z,2.60
2022-11-02T18:34:25.894Z,3.22
2022-11-02T18:39:28.953Z,2.83
2022-11-02T18:44:30.420Z,3.40
2022-11-02T18:49:31.907Z,3.20
2022-11-02T18:54:33.504Z,3.65
2022-11-02T18:59:36.084Z,3.42
2022-11-02T19:04:37.777Z,3.70
2022-11-02T19:09:39.300Z,2.80
2022-11-02T19:14:44.505Z,4.43
2022-11-02T19:19:46.700Z,3.78
2022-11-02T19:24:51.423Z,3.15
2022-11-02T19:29:53.026Z,3.15
2022-11-02T19:34:54.499Z,2.65
2022-11-02T19:39:56.001Z,3.80
2022-11-02T19:44:57.483Z,4.95
2022-11-02T19:49:58.947Z,2.90
2022-11-02T19:55:00.470Z,2.45
2022-11-02T20:00:01.965Z,2.30
2022-11-02T20:05:03.545Z,2.75
2022-11-02T20:10:05.244Z,2.80
2022-11-02T20:15:07.932Z,2.30
2022-11-02T20:20:09.618Z,2.38
2022-11-02T20:25:11.093Z,3.60
2022-11-02T20:30:12.638Z,2.45
2022-11-02T20:35:14.181Z,2.72
2022-11-02T20:40:15.972Z,2.78
2022-11-02T20:45:17.919Z,2.97
2022-11-02T20:50:24.739Z,3.17
2022-11-02T20:55:27.488Z,2.63
2022-11-02T21:00:28.985Z,2.60
2022-11-02T21:05:30.786Z,2.42
2022-11-02T21:10:32.251Z,3.15
2022-11-02T21:15:38.513Z,3.15
2022-11-02T21:20:42.635Z,2.83
2022-11-02T21:25:46.366Z,3.85
2022-11-02T21:30:49.653Z,3.20
2022-11-02T21:35:53.783Z,3.05
2022-11-02T21:41:01.311Z,3.03
2022-11-02T21:51:15.904Z,3.10
2022-11-02T21:56:26.864Z,2.92
2022-11-02T22:01:49.389Z,3.20
2022-11-02T22:06:52.337Z,3.13
2022-11-02T22:12:12.893Z,3.00
2022-11-02T22:17:43.229Z,3.25
2022-11-02T22:22:35.842Z,3.00
2022-11-02T22:27:37.301Z,3.55
2022-11-02T22:32:38.748Z,2.80
2022-11-02T22:37:58.765Z,2.65
2022-11-02T22:43:00.255Z,3.30
2022-11-02T22:48:01.900Z,3.65
2022-11-02T22:53:09.272Z,3.05
2022-11-02T22:58:12.780Z,3.13
2022-11-02T23:03:19.109Z,3.25
2022-11-02T23:08:20.893Z,3.28
2022-11-02T23:13:22.748Z,3.50
2022-11-02T23:18:44.179Z,3.38
2022-11-02T23:24:04.291Z,2.72
2022-11-02T23:29:24.300Z,3.10
2022-11-02T23:34:25.761Z,3.03
2022-11-02T23:39:45.771Z,2.65
2022-11-02T23:44:47.245Z,3.08
2022-11-02T23:49:48.711Z,3.05
2022-11-02T23:55:08.492Z,3.40
